• Join FlightAware (Why Join?)
  • Login
  • US Flag 
03:22AM EDT


 

Airport Tracker/Info


-or-


 

Live Flight TrackerFlight Track Log ✈ ACA301 ✈ 20-Jun-2013 ✈ KDCA - CYYZ

Flight Track Log - Related Links

Times and Time Zones

All times are in EDT time to prevent confusion due to time zone crossing. See the ACA301 flight status page for this flight to view local times or setup timezone preferences in your user account.

Time Position Orientation Groundspeed Altitude Reporting Facility
EDT Latitude Longitude Course Direction KTS MPH feet Rate Location/Type
06:16AM 38.8000 -77.0333 339° North 164 189 2,200  Level Potomac TRACON
06:17AM 38.7667 -77.0833 229° Southwest 245 282 3,800 2,400 Climbing Potomac TRACON
06:18AM 39.2073 -77.2246 346° North  Level FlightAware Approximate
06:18AM 38.7500 -77.1667 256° West 275 316 7,100  Level Potomac TRACON
06:19AM 39.3018 -77.2713 337° Northwest  Level FlightAware Approximate
06:19AM 38.7667 -77.2500 284° West 282 325 9,800  Level Potomac TRACON
06:20AM 39.3946 -77.3242 333° Northwest  Level FlightAware Approximate
06:20AM 38.8333 -77.3167 322° Northwest 313 360 11,100  Level Potomac TRACON
06:21AM 39.4874 -77.3770 339° North  Level FlightAware Approximate
06:21AM 38.9167 -77.3667 335° Northwest 334 384 13,200  Level Potomac TRACON
06:23AM 39.0911 -77.4369 343° North 357 411 16,900 1,500 Climbing Washington Center
06:24AM 39.1886 -77.4581 350° North 357 411 17,700 960 Climbing Washington Center
06:25AM 39.2908 -77.4581 360° North 357 411 18,900 1,440 Climbing Washington Center
06:27AM 39.5194 -77.4567 360° North 356 410 22,500 1,440 Climbing New York Center
06:28AM 39.6258 -77.4558 360° North 368 423 23,700 1,140 Climbing New York Center
06:29AM 39.7344 -77.4528 North 378 435 24,900 1,380 Climbing New York Center
06:30AM 39.8431 -77.4522 360° North 383 441 26,600 1,440 Climbing New York Center
06:31AM 39.9475 -77.4486 North 383 441 27,900 960 Climbing New York Center
06:32AM 40.0664 -77.4464 North 383 441 28,600 1,020 Climbing New York Center
06:33AM 40.1553 -77.4958 337° Northwest 383 441 30,000 660 Climbing New York Center
06:34AM 40.2553 -77.5353 343° North 383 441 30,000  Level New York Center
06:35AM 40.3553 -77.5725 344° North 372 428 30,000  Level New York Center
06:37AM 40.5256 -77.6439 342° North 368 423 30,000  Level Cleveland Center
06:38AM 40.6225 -77.6833 343° North 368 423 30,000  Level Cleveland Center
06:39AM 40.7192 -77.7228 343° North 368 423 30,000  Level Cleveland Center
06:40AM 40.8161 -77.7625 343° North 368 423 30,000  Level Cleveland Center
06:41AM 40.9153 -77.8022 343° North 368 423 30,000  Level Cleveland Center
06:42AM 41.0119 -77.8422 343° North 368 423 30,000  Level Cleveland Center
06:43AM 41.1089 -77.8822 343° North 368 423 30,000  Level Cleveland Center
06:44AM 41.2078 -77.9225 343° North 368 423 30,000  Level Cleveland Center
06:45AM 41.3153 -77.9650 343° North 368 423 30,000  Level Cleveland Center
06:46AM 41.4119 -78.0025 344° North 368 423 30,000  Level Cleveland Center
06:47AM 41.5086 -78.0431 343° North 368 423 30,000  Level Cleveland Center
06:48AM 41.6075 -78.0836 343° North 368 423 30,000  Level Cleveland Center
06:49AM 41.7044 -78.1244 343° North 368 423 30,000  Level Cleveland Center
06:50AM 41.7992 -78.1653 342° North 368 423 30,000  Level Cleveland Center
06:51AM 41.9000 -78.2064 343° North 368 423 30,000  Level Cleveland Center
06:52AM 41.9947 -78.2475 342° North 363 418 30,000  Level Cleveland Center
06:53AM 42.0936 -78.2914 342° North 368 423 30,000  Level Cleveland Center
06:54AM 42.1903 -78.3300 344° North 368 423 30,000  Level Cleveland Center
06:55AM 42.2889 -78.3742 342° North 368 423 30,000  Level Cleveland Center
06:56AM 42.3836 -78.4131 343° North 368 423 30,000  Level Cleveland Center
06:57AM 42.4822 -78.4547 343° North 368 423 30,000  Level Cleveland Center
06:58AM 42.5789 -78.4967 342° North 368 423 30,000 -300 Level Cleveland Center
06:59AM 42.6733 -78.5358 343° North 368 423 29,500 -780 Descending Cleveland Center
07:00AM 42.7597 -78.5811 339° North 353 406 28,500 -1,080 Descending Cleveland Center
07:01AM 42.8258 -78.6667 317° Northwest 329 379 27,400 -960 Descending Cleveland Center
07:02AM 42.8747 -78.7361 314° West 323 372 26,600 -5,220 Descending Cleveland Center
07:03AM 42.9553 -78.8158 324° Northwest 323 372 17,000 -1,920 Descending Cleveland Center
07:04AM 42.9833 -78.8833 300° West 320 368 23,200 2,220 Climbing Toronto Center
07:05AM 43.0500 -78.9667 318° Northwest 320 368 21,100 -2,100 Descending Toronto Center
07:06AM 43.1000 -79.0667 304° West 310 357 19,100 -2,040 Descending Toronto Center
07:07AM 43.1667 -79.1500 318° Northwest 300 345 17,100 -1,920 Descending Toronto Center
07:08AM 43.2167 -79.2167 316° Northwest 290 334 15,300 -1,920 Descending Toronto Center
07:09AM 43.2667 -79.3167 304° West 280 322 13,300 -1,920 Descending Toronto Center
07:10AM 43.3333 -79.3500 340° North 280 322 11,500 -1,620 Descending Toronto Center
07:11AM 43.4000 -79.4000 331° Northwest 280 322 10,100 -1,260 Descending Toronto Center
07:12AM 43.4833 -79.4500 336° Northwest 280 322 9,000 -600 Descending Toronto Center
07:13AM 43.5333 -79.5000 324° Northwest 270 311 9,000 -660 Level Toronto Center
07:14AM 43.6000 -79.5000 360° North 250 288 7,700 -1,380 Descending Toronto Center
07:15AM 43.6500 -79.4333 44° Northeast 250 288 6,300 -1,500 Descending Toronto Center
07:16AM 43.7000 -79.3500 50° Northeast 240 276 4,700 -1,500 Descending Toronto Center
07:17AM 43.7500 -79.3833 334° Northwest 210 242 3,300 -900 Descending Toronto Center
07:18AM 43.7500 -79.4500 270° West 200 230 3,000 -300 Descending Toronto Center